createdAt,value
2023-01-07T00:04:28.317Z,12.30
2023-01-07T00:09:30.377Z,12.40
2023-01-07T00:14:32.395Z,12.30
2023-01-07T00:19:34.450Z,12.30
2023-01-07T00:24:36.537Z,12.40
2023-01-07T00:29:38.591Z,12.40
2023-01-07T00:34:40.645Z,12.40
2023-01-07T00:39:42.751Z,12.40
2023-01-07T00:44:44.807Z,12.40
2023-01-07T00:49:47.185Z,12.50
2023-01-07T00:54:49.311Z,12.50
2023-01-07T00:59:51.450Z,12.50
2023-01-07T01:04:53.717Z,12.50
2023-01-07T01:09:56.114Z,12.50
2023-01-07T01:14:58.233Z,12.50
2023-01-07T01:20:00.657Z,12.50
2023-01-07T01:25:02.672Z,12.50
2023-01-07T01:30:06.101Z,12.50
2023-01-07T01:35:10.803Z,12.50
2023-01-07T01:40:14.053Z,12.40
2023-01-07T01:45:16.355Z,12.40
2023-01-07T01:50:32.037Z,12.40
2023-01-07T01:55:46.235Z,12.40
2023-01-07T02:00:49.305Z,12.30
2023-01-07T02:05:52.003Z,12.40
2023-01-07T02:11:48.255Z,12.40
2023-01-07T02:17:01.992Z,12.30
2023-01-07T02:22:44.759Z,12.30
2023-01-07T02:28:19.393Z,12.20
2023-01-07T02:33:27.739Z,12.20
2023-01-07T02:38:56.409Z,12.30
2023-01-07T02:44:12.315Z,12.30
2023-01-07T02:49:16.436Z,12.20
2023-01-07T02:54:23.879Z,12.20
2023-01-07T02:59:59.336Z,12.20
2023-01-07T03:05:10.952Z,12.00
2023-01-07T03:10:26.567Z,11.80
2023-01-07T03:15:36.319Z,11.60
2023-01-07T03:20:41.225Z,11.60
2023-01-07T03:25:46.688Z,11.50
2023-01-07T03:30:51.304Z,11.50
2023-01-07T03:35:56.724Z,11.50
2023-01-07T03:40:58.834Z,11.50
2023-01-07T03:46:01.112Z,11.40
2023-01-07T03:51:03.988Z,11.40
2023-01-07T03:56:06.507Z,11.50
2023-01-07T04:01:08.910Z,11.40
2023-01-07T04:06:12.009Z,11.40
2023-01-07T04:11:14.843Z,11.40
2023-01-07T04:16:17.198Z,11.40
2023-01-07T04:21:19.682Z,11.40
2023-01-07T04:26:21.842Z,11.40
2023-01-07T04:31:24.421Z,11.30
2023-01-07T04:36:26.587Z,11.30
2023-01-07T04:41:29.561Z,11.30
2023-01-07T04:46:32.469Z,11.30
2023-01-07T04:51:35.162Z,11.30
2023-01-07T04:56:38.577Z,11.30
2023-01-07T05:01:41.243Z,11.20
2023-01-07T05:06:44.284Z,11.20
2023-01-07T05:11:46.456Z,11.20
2023-01-07T05:16:49.521Z,11.20
2023-01-07T05:21:51.782Z,11.20
2023-01-07T05:26:54.316Z,11.20
2023-01-07T05:31:57.687Z,11.10
2023-01-07T05:37:00.761Z,11.10
2023-01-07T05:42:04.583Z,11.10
2023-01-07T05:47:07.166Z,11.10
2023-01-07T05:52:09.288Z,11.10
2023-01-07T05:57:11.434Z,11.10
2023-01-07T06:02:13.509Z,11.10
2023-01-07T06:07:15.663Z,11.10
2023-01-07T06:12:17.801Z,11.10
2023-01-07T06:17:19.900Z,11.10
2023-01-07T06:22:21.986Z,11.00
2023-01-07T06:27:24.058Z,11.00
2023-01-07T06:32:26.169Z,11.00
2023-01-07T06:37:28.356Z,11.00
2023-01-07T06:42:30.483Z,11.00
2023-01-07T06:47:32.642Z,11.10
2023-01-07T06:52:34.730Z,11.10
2023-01-07T06:57:36.895Z,11.20
2023-01-07T07:02:39.054Z,11.30
2023-01-07T07:07:41.125Z,11.30
2023-01-07T07:12:43.230Z,11.50
2023-01-07T07:17:45.439Z,11.50
2023-01-07T07:22:48.638Z,11.50
2023-01-07T07:27:50.862Z,11.50
2023-01-07T07:32:52.883Z,11.60
2023-01-07T07:37:54.895Z,11.60
2023-01-07T07:43:11.357Z,11.60
2023-01-07T07:48:16.383Z,11.60
2023-01-07T07:53:19.396Z,11.70
2023-01-07T07:58:21.540Z,11.70
2023-01-07T08:03:24.054Z,11.70
2023-01-07T08:08:26.284Z,11.70
2023-01-07T08:13:29.685Z,11.60
2023-01-07T08:18:31.801Z,11.60
2023-01-07T08:23:34.875Z,11.60
2023-01-07T08:28:38.296Z,11.60
2023-01-07T08:33:40.468Z,11.50
2023-01-07T08:38:44.250Z,11.50
2023-01-07T08:43:46.467Z,11.50
2023-01-07T08:48:48.637Z,11.40
2023-01-07T08:53:50.893Z,11.40
2023-01-07T08:58:52.919Z,11.50
2023-01-07T09:03:55.058Z,11.50
2023-01-07T09:08:57.094Z,11.50
2023-01-07T09:13:59.126Z,11.60
2023-01-07T09:19:01.282Z,11.60
2023-01-07T09:24:03.406Z,11.60
2023-01-07T09:29:05.439Z,11.60
2023-01-07T09:34:07.581Z,11.60
2023-01-07T09:39:11.811Z,11.50
2023-01-07T09:44:36.428Z,11.50
2023-01-07T09:49:40.054Z,11.50
2023-01-07T09:54:45.733Z,11.60
2023-01-07T09:59:47.858Z,11.60
2023-01-07T10:05:07.885Z,11.60
2023-01-07T10:10:25.941Z,11.70
2023-01-07T10:16:01.837Z,11.80
2023-01-07T10:21:29.711Z,11.80
2023-01-07T10:26:48.381Z,11.90
2023-01-07T10:31:51.909Z,11.90
2023-01-07T10:37:07.017Z,11.90
2023-01-07T10:42:50.184Z,11.90
2023-01-07T10:48:33.237Z,11.90
2023-01-07T10:53:53.416Z,12.00
2023-01-07T10:58:55.640Z,12.20
2023-01-07T11:04:00.052Z,12.30
2023-01-07T11:09:06.249Z,12.40
2023-01-07T11:14:17.412Z,12.40
2023-01-07T11:19:20.315Z,12.50
2023-01-07T11:24:35.796Z,12.60
2023-01-07T11:29:45.277Z,12.70
2023-01-07T11:34:51.913Z,12.70
2023-01-07T11:40:00.174Z,12.80
2023-01-07T11:45:09.215Z,12.80
2023-01-07T11:50:29.826Z,12.60
2023-01-07T11:55:32.033Z,12.50
2023-01-07T12:00:34.189Z,12.70
2023-01-07T12:05:36.733Z,12.30
2023-01-07T12:10:39.614Z,12.10
2023-01-07T12:15:53.074Z,12.00
2023-01-07T12:21:27.115Z,11.80
2023-01-07T12:26:39.361Z,11.40
2023-01-07T12:32:43.198Z,11.20
2023-01-07T12:37:47.967Z,11.70
2023-01-07T12:42:56.611Z,12.00
2023-01-07T12:48:03.855Z,12.20
2023-01-07T12:53:23.416Z,12.20
2023-01-07T12:58:59.128Z,11.80
2023-01-07T13:04:16.455Z,11.70
2023-01-07T13:09:42.198Z,11.50
2023-01-07T13:14:53.120Z,11.20
2023-01-07T13:19:56.162Z,11.10
2023-01-07T13:25:29.129Z,11.10
2023-01-07T13:31:12.955Z,10.90
2023-01-07T13:36:34.573Z,10.60
2023-01-07T13:41:42.554Z,10.80
2023-01-07T13:46:46.649Z,11.00
2023-01-07T13:51:48.838Z,11.10
2023-01-07T13:56:51.360Z,10.70
2023-01-07T14:02:52.251Z,10.60
2023-01-07T14:08:02.577Z,10.80
2023-01-07T14:13:21.186Z,11.20
2023-01-07T14:18:35.028Z,11.10
2023-01-07T14:24:17.426Z,11.10
2023-01-07T14:29:38.783Z,11.20
2023-01-07T14:34:40.930Z,10.80
2023-01-07T14:39:46.953Z,10.60
2023-01-07T14:44:50.901Z,10.50
2023-01-07T14:50:04.568Z,10.50
2023-01-07T14:55:45.748Z,10.50
2023-01-07T15:01:16.015Z,10.40
2023-01-07T15:06:39.363Z,10.80
2023-01-07T15:12:02.017Z,11.10
2023-01-07T15:17:04.874Z,10.90
2023-01-07T15:22:31.176Z,10.90
2023-01-07T15:27:44.694Z,10.80
2023-01-07T15:32:52.984Z,10.60
2023-01-07T15:37:55.217Z,10.20
2023-01-07T15:42:58.958Z,8.80
2023-01-07T15:48:12.600Z,8.30
2023-01-07T15:53:14.652Z,8.20
2023-01-07T15:58:20.215Z,8.10
2023-01-07T16:03:23.060Z,8.20
2023-01-07T16:08:30.974Z,8.30
2023-01-07T16:13:33.554Z,8.40
2023-01-07T16:18:35.586Z,8.40
2023-01-07T16:23:39.280Z,8.30
2023-01-07T16:28:44.985Z,8.20
2023-01-07T16:33:49.831Z,8.20
2023-01-07T16:38:54.136Z,8.20
2023-01-07T16:43:58.244Z,8.20
2023-01-07T16:49:30.064Z,8.20
2023-01-07T16:54:39.943Z,8.20
2023-01-07T16:59:55.368Z,8.20
2023-01-07T17:05:13.644Z,8.20
2023-01-07T17:10:32.760Z,8.20
2023-01-07T17:15:39.524Z,8.20
2023-01-07T17:20:53.171Z,8.20
2023-01-07T17:25:58.952Z,8.20
2023-01-07T17:31:01.646Z,8.20
2023-01-07T17:36:03.954Z,8.20
2023-01-07T17:41:08.895Z,8.20
2023-01-07T17:46:12.652Z,8.20
2023-01-07T17:51:14.809Z,8.20
2023-01-07T17:56:17.061Z,8.20
2023-01-07T18:01:22.712Z,8.20
2023-01-07T18:06:27.448Z,8.10
2023-01-07T18:11:48.412Z,8.10
2023-01-07T18:16:52.506Z,8.10
2023-01-07T18:21:54.631Z,8.10
2023-01-07T18:26:56.824Z,8.00
2023-01-07T18:31:58.980Z,8.00
2023-01-07T18:37:01.327Z,8.00
2023-01-07T18:42:03.406Z,7.90
2023-01-07T18:47:05.495Z,7.90
2023-01-07T18:52:07.610Z,8.00
2023-01-07T18:57:09.642Z,8.10
2023-01-07T19:02:17.240Z,8.10
2023-01-07T19:07:19.741Z,8.00
2023-01-07T19:12:21.797Z,8.00
2023-01-07T19:17:23.819Z,8.00
2023-01-07T19:22:25.835Z,7.90
2023-01-07T19:27:27.930Z,7.90
2023-01-07T19:32:30.714Z,7.90
2023-01-07T19:37:32.845Z,7.90
2023-01-07T19:42:35.392Z,7.90
2023-01-07T19:47:38.385Z,7.90
2023-01-07T19:52:40.430Z,7.90
2023-01-07T19:57:42.579Z,7.90
2023-01-07T20:02:44.639Z,7.90
2023-01-07T20:07:46.695Z,7.80
2023-01-07T20:12:48.745Z,7.80
2023-01-07T20:17:50.848Z,7.80
2023-01-07T20:22:52.939Z,7.70
2023-01-07T20:27:55.012Z,7.80
2023-01-07T20:32:57.073Z,7.90
2023-01-07T20:37:59.144Z,8.00
2023-01-07T20:43:01.283Z,8.00
2023-01-07T20:48:04.359Z,8.10
2023-01-07T20:53:06.616Z,8.00
2023-01-07T20:58:08.729Z,7.90
2023-01-07T21:03:10.977Z,7.90
2023-01-07T21:08:13.439Z,7.80
2023-01-07T21:13:15.562Z,7.70
2023-01-07T21:18:18.003Z,7.70
2023-01-07T21:23:20.047Z,7.70
2023-01-07T21:28:22.157Z,7.70
2023-01-07T21:33:24.340Z,7.70
2023-01-07T21:38:26.675Z,7.70
2023-01-07T21:43:30.110Z,7.70
2023-01-07T21:48:36.891Z,7.70
2023-01-07T21:53:39.006Z,7.70
2023-01-07T21:58:41.623Z,7.70
2023-01-07T22:03:46.592Z,7.70
2023-01-07T22:08:49.414Z,7.70
2023-01-07T22:13:55.040Z,7.80
2023-01-07T22:18:57.641Z,7.80
2023-01-07T22:23:59.771Z,7.80
2023-01-07T22:29:03.485Z,7.90
2023-01-07T22:34:06.932Z,8.00
2023-01-07T22:39:18.406Z,8.00
2023-01-07T22:44:28.926Z,7.80
2023-01-07T22:49:32.843Z,7.50
2023-01-07T22:54:36.123Z,7.40
2023-01-07T22:59:38.525Z,7.30
2023-01-07T23:04:40.644Z,7.30
2023-01-07T23:09:42.753Z,7.20
2023-01-07T23:14:44.847Z,7.10
2023-01-07T23:19:46.920Z,7.00
2023-01-07T23:24:49.012Z,7.00
2023-01-07T23:29:51.059Z,7.00
2023-01-07T23:34:53.156Z,7.00
2023-01-07T23:39:55.484Z,7.00
2023-01-07T23:44:57.590Z,7.00
2023-01-07T23:49:59.879Z,7.10
2023-01-07T23:55:02.044Z,7.00
